Time;durP1;ratioP1;P1;durP2;ratioP2;P2;SDS_P1;SDS_P2;PMS_P1;PMS_P2;Temp;Humidity;BMP_temperature;BMP_pressure;BME280_temperature;BME280_humidity;BME280_pressure;Samples;Min_cycle;Max_cycle;Signal;HPM_P1;HPM_P2
2021/04/11 00:00:45;;;;;;;11.00;8.15;;;11.30;99.90;;;;;;5011786;28;20097;-64
2021/04/11 00:03:15;;;;;;;14.02;9.20;;;11.30;99.90;;;;;;4994647;28;20064;-63
2021/04/11 00:05:42;;;;;;;12.40;9.02;;;11.20;99.90;;;;;;5011343;28;20463;-63
2021/04/11 00:08:10;;;;;;;12.18;8.32;;;11.30;99.90;;;;;;5011826;28;20456;-61
2021/04/11 00:10:39;;;;;;;12.20;9.32;;;11.30;99.90;;;;;;5010957;28;20049;-62
2021/04/11 00:13:08;;;;;;;11.90;8.80;;;11.30;99.90;;;;;;4994337;28;20053;-62
2021/04/11 00:15:34;;;;;;;17.25;11.13;;;11.30;99.90;;;;;;5011494;28;20097;-63
2021/04/11 00:17:59;;;;;;;14.70;8.95;;;11.20;99.90;;;;;;5012216;28;20511;-63
2021/04/11 00:20:25;;;;;;;15.13;9.18;;;11.20;99.90;;;;;;5012253;28;20093;-62
2021/04/11 00:22:51;;;;;;;13.30;9.88;;;11.30;99.90;;;;;;4978362;28;20120;-62
2021/04/11 00:25:26;;;;;;;10.48;8.13;;;11.20;99.90;;;;;;4992443;28;20033;-62
2021/04/11 00:27:53;;;;;;;10.27;8.27;;;11.20;99.90;;;;;;4991390;28;20172;-62
2021/04/11 00:30:20;;;;;;;10.20;8.38;;;11.10;99.90;;;;;;4992094;28;20080;-61
2021/04/11 00:32:49;;;;;;;12.88;9.68;;;11.10;99.90;;;;;;4973938;28;20456;-61
2021/04/11 00:35:16;;;;;;;12.30;9.63;;;11.00;99.90;;;;;;4991904;28;20086;-61
2021/04/11 00:37:42;;;;;;;11.80;9.50;;;11.00;99.90;;;;;;4973934;28;20057;-61
2021/04/11 00:40:20;;;;;;;12.20;8.85;;;11.00;99.90;;;;;;4992085;28;20412;-61
2021/04/11 00:42:51;;;;;;;13.95;7.97;;;11.00;99.90;;;;;;4990917;28;20508;-61
2021/04/11 00:45:28;;;;;;;11.93;8.82;;;11.00;99.90;;;;;;4992147;28;20037;-61
2021/04/11 00:47:55;;;;;;;10.93;7.60;;;10.90;99.90;;;;;;4991296;28;20423;-61
2021/04/11 00:50:22;;;;;;;13.65;8.70;;;10.90;99.90;;;;;;4991850;28;20476;-62
2021/04/11 00:52:48;;;;;;;10.77;8.85;;;10.80;99.90;;;;;;4973609;28;20130;-62
2021/04/11 00:55:16;;;;;;;16.15;8.77;;;10.90;99.90;;;;;;4991715;28;20352;-62
2021/04/11 00:57:43;;;;;;;11.57;9.00;;;10.80;99.90;;;;;;4990864;28;20037;-62
2021/04/11 01:00:11;;;;;;;10.73;9.07;;;10.80;99.90;;;;;;4991636;28;20030;-62
2021/04/11 01:02:39;;;;;;;13.02;9.48;;;10.80;99.90;;;;;;4990758;28;20503;-64
2021/04/11 01:05:11;;;;;;;17.27;10.38;;;10.80;99.90;;;;;;4991360;28;20460;-62
2021/04/11 01:07:39;;;;;;;14.50;9.55;;;10.60;99.90;;;;;;4974002;28;20027;-63
2021/04/11 01:10:08;;;;;;;12.85;8.98;;;10.70;99.90;;;;;;4991430;28;20037;-61
2021/04/11 01:12:34;;;;;;;13.10;9.25;;;10.70;99.90;;;;;;4991668;28;20126;-61
2021/04/11 01:15:00;;;;;;;11.48;8.65;;;10.70;99.90;;;;;;4990453;28;20101;-61
2021/04/11 01:17:26;;;;;;;17.35;9.50;;;10.70;99.90;;;;;;4973756;28;20030;-61
2021/04/11 01:19:52;;;;;;;10.38;8.95;;;10.70;99.90;;;;;;4990314;28;20027;-61
2021/04/11 01:22:39;;;;;;;12.75;9.18;;;10.80;99.90;;;;;;4991117;28;20034;-61
2021/04/11 01:25:12;;;;;;;13.15;9.40;;;10.70;99.90;;;;;;4991297;28;20026;-61
2021/04/11 01:27:38;;;;;;;13.02;9.20;;;10.70;99.90;;;;;;4973859;28;20034;-62
2021/04/11 01:30:19;;;;;;;12.68;9.23;;;10.80;99.90;;;;;;4973397;28;20033;-61
2021/04/11 01:32:45;;;;;;;12.13;9.65;;;10.80;99.90;;;;;;4990304;28;20053;-61
2021/04/11 01:35:13;;;;;;;14.65;9.57;;;10.70;99.90;;;;;;4990862;28;20034;-61
2021/04/11 01:37:39;;;;;;;16.88;10.57;;;10.70;99.90;;;;;;4990413;28;20042;-62
2021/04/11 01:40:09;;;;;;;11.95;9.48;;;10.60;99.90;;;;;;4991000;28;20472;-62
2021/04/11 01:42:35;;;;;;;15.80;10.60;;;10.60;99.90;;;;;;4957253;28;20038;-61
2021/04/11 01:45:01;;;;;;;11.70;10.13;;;10.50;99.90;;;;;;4972867;28;20045;-62
2021/04/11 01:47:27;;;;;;;13.57;9.85;;;10.40;99.90;;;;;;4990521;28;20030;-61
2021/04/11 01:49:52;;;;;;;13.90;10.77;;;10.50;99.90;;;;;;4989871;28;20031;-62
2021/04/11 01:52:23;;;;;;;13.95;10.43;;;10.60;99.90;;;;;;4990788;28;20340;-61
2021/04/11 01:54:49;;;;;;;13.90;9.53;;;10.50;99.90;;;;;;4990292;28;20467;-62
2021/04/11 01:57:25;;;;;;;13.48;10.55;;;10.50;99.90;;;;;;4990769;28;20018;-62
2021/04/11 01:59:58;;;;;;;18.17;11.73;;;10.50;99.90;;;;;;4990058;28;20031;-62
2021/04/11 02:02:23;;;;;;;18.67;10.85;;;10.50;99.90;;;;;;4973145;28;20414;-62
2021/04/11 02:04:50;;;;;;;13.75;10.70;;;10.50;99.90;;;;;;4990136;28;20038;-62
2021/04/11 02:07:16;;;;;;;14.15;10.73;;;10.50;99.90;;;;;;4972955;28;20042;-62
2021/04/11 02:09:46;;;;;;;16.35;10.10;;;10.60;99.90;;;;;;4990208;28;20031;-62
2021/04/11 02:12:13;;;;;;;15.45;10.68;;;10.40;99.90;;;;;;4972986;28;20030;-64
2021/04/11 02:14:41;;;;;;;14.82;11.55;;;10.40;99.90;;;;;;4990579;28;20038;-61
2021/04/11 02:17:07;;;;;;;15.00;11.07;;;10.40;99.90;;;;;;4973003;28;20031;-62
2021/04/11 02:19:33;;;;;;;12.98;9.35;;;10.40;99.90;;;;;;4990319;28;20097;-61
2021/04/11 02:22:12;;;;;;;14.68;10.23;;;10.50;99.90;;;;;;4972164;28;20440;-61
2021/04/11 02:24:45;;;;;;;15.35;10.20;;;10.50;99.90;;;;;;4972890;28;20106;-61
2021/04/11 02:27:14;;;;;;;17.67;9.77;;;10.60;99.90;;;;;;4990558;28;20045;-61
2021/04/11 02:29:41;;;;;;;16.52;10.80;;;10.50;99.90;;;;;;4990046;28;20034;-61
2021/04/11 02:32:09;;;;;;;15.95;10.85;;;10.50;99.90;;;;;;4973628;28;20126;-61
2021/04/11 02:34:35;;;;;;;15.27;10.55;;;10.60;99.90;;;;;;4994170;28;20038;-61
2021/04/11 02:37:10;;;;;;;16.65;10.63;;;10.60;99.90;;;;;;4976184;28;20054;-61
2021/04/11 02:39:38;;;;;;;14.45;9.60;;;10.60;99.90;;;;;;4994440;28;20058;-60
2021/04/11 02:42:11;;;;;;;14.70;9.90;;;10.60;99.90;;;;;;4976160;28;20099;-60
2021/04/11 02:44:39;;;;;;;13.90;10.00;;;10.50;99.90;;;;;;4994067;28;20107;-61
2021/04/11 02:47:06;;;;;;;14.95;9.90;;;10.50;99.90;;;;;;4993354;28;20065;-61
2021/04/11 02:49:32;;;;;;;13.52;9.25;;;10.50;99.90;;;;;;4993828;28;20395;-61
2021/04/11 02:52:02;;;;;;;15.25;9.93;;;10.50;99.90;;;;;;4993369;28;20492;-61
2021/04/11 02:54:29;;;;;;;12.27;10.02;;;10.50;99.90;;;;;;4993692;28;20334;-61
2021/04/11 02:56:58;;;;;;;12.32;8.57;;;10.50;99.90;;;;;;4993337;28;20089;-61
2021/04/11 02:59:24;;;;;;;15.63;9.18;;;10.50;99.90;;;;;;4993887;28;20068;-61
2021/04/11 03:01:52;;;;;;;13.85;8.27;;;10.40;99.90;;;;;;4993520;28;20034;-61
2021/04/11 03:04:21;;;;;;;12.30;9.52;;;10.40;99.90;;;;;;4993344;28;20387;-61
2021/04/11 03:06:55;;;;;;;13.80;10.05;;;10.40;99.90;;;;;;4970799;28;20065;-61
2021/04/11 03:09:45;;;;;;;13.27;8.52;;;10.40;99.90;;;;;;4971827;28;20043;-61
2021/04/11 03:12:11;;;;;;;16.33;8.82;;;10.50;99.90;;;;;;4971734;28;20597;-61
2021/04/11 03:14:41;;;;;;;10.25;8.63;;;10.50;99.90;;;;;;4955463;28;20042;-61
2021/04/11 03:17:17;;;;;;;12.77;8.88;;;10.50;99.90;;;;;;4970753;28;20046;-61
2021/04/11 03:19:52;;;;;;;11.70;9.50;;;10.60;99.90;;;;;;4971304;28;20054;-61
2021/04/11 03:22:19;;;;;;;11.15;8.93;;;10.50;99.90;;;;;;4971279;28;20030;-61
2021/04/11 03:24:49;;;;;;;11.63;8.60;;;10.50;99.90;;;;;;4970655;28;20053;-62
2021/04/11 03:27:28;;;;;;;12.98;9.30;;;10.50;99.90;;;;;;4971232;28;20069;-61
2021/04/11 03:30:00;;;;;;;12.25;8.55;;;10.50;99.90;;;;;;4970570;28;20042;-61
2021/04/11 03:32:30;;;;;;;11.05;8.15;;;10.40;99.90;;;;;;4971207;28;20038;-61
2021/04/11 03:34:58;;;;;;;12.30;9.27;;;10.50;99.90;;;;;;4970437;28;20486;-61
2021/04/11 03:37:27;;;;;;;19.85;9.70;;;10.40;99.90;;;;;;4978515;28;20100;-61
2021/04/11 03:39:53;;;;;;;13.30;9.40;;;10.40;99.90;;;;;;4992361;28;20357;-61
2021/04/11 03:42:23;;;;;;;12.88;8.95;;;10.50;99.90;;;;;;4975379;28;20440;-60
2021/04/11 03:44:52;;;;;;;10.90;8.60;;;10.40;99.90;;;;;;4991307;28;20054;-61
2021/04/11 03:47:27;;;;;;;14.02;9.40;;;10.40;99.90;;;;;;4992892;28;20106;-61
2021/04/11 03:50:00;;;;;;;14.93;8.85;;;10.50;99.90;;;;;;4974661;28;20027;-60
2021/04/11 03:52:31;;;;;;;13.55;9.05;;;10.40;99.90;;;;;;4974999;28;20460;-60
2021/04/11 03:55:00;;;;;;;12.07;9.60;;;10.40;99.90;;;;;;4992204;28;20018;-61
2021/04/11 03:57:29;;;;;;;13.65;9.10;;;10.40;99.90;;;;;;4992532;28;20042;-61
2021/04/11 04:00:03;;;;;;;11.23;8.20;;;10.40;99.90;;;;;;4992043;28;20140;-61
2021/04/11 04:02:32;;;;;;;11.73;8.70;;;10.50;99.90;;;;;;4992281;28;20034;-61
2021/04/11 04:04:59;;;;;;;15.10;8.25;;;10.50;99.90;;;;;;4991442;28;20121;-61
2021/04/11 04:07:25;;;;;;;12.63;7.60;;;10.50;99.90;;;;;;4992508;28;20340;-61
2021/04/11 04:10:00;;;;;;;11.77;7.72;;;10.50;99.90;;;;;;4974148;28;20495;-62
2021/04/11 04:12:28;;;;;;;11.45;7.72;;;10.60;99.90;;;;;;4992270;28;20136;-61
2021/04/11 04:15:17;;;;;;;12.05;7.80;;;10.60;99.90;;;;;;4991842;28;20026;-62
2021/04/11 04:18:09;;;;;;;11.15;7.55;;;10.60;99.90;;;;;;4990609;28;20133;-62
2021/04/11 04:21:00;;;;;;;11.43;7.30;;;10.50;99.90;;;;;;4992099;28;20475;-61
2021/04/11 04:23:54;;;;;;;9.40;6.45;;;10.60;99.90;;;;;;4974664;28;20045;-62
2021/04/11 04:26:32;;;;;;;11.68;6.78;;;10.60;99.90;;;;;;4992675;28;20111;-62
2021/04/11 04:29:18;;;;;;;9.43;6.88;;;10.80;99.90;;;;;;4991238;28;20037;-62
2021/04/11 04:31:50;;;;;;;12.40;7.35;;;10.70;99.90;;;;;;4992105;28;20033;-61
2021/04/11 04:34:31;;;;;;;;;;;10.60;99.90;;;;;;4992442;28;20026;-61
2021/04/11 04:37:15;;;;;;;10.55;6.82;;;10.70;99.90;;;;;;4991566;28;19910;-61
2021/04/11 04:40:05;;;;;;;7.93;6.20;;;10.80;99.90;;;;;;4974029;28;20444;-61
2021/04/11 04:42:54;;;;;;;7.90;6.18;;;10.70;99.90;;;;;;4991727;28;20046;-60
2021/04/11 04:45:44;;;;;;;6.60;5.40;;;10.60;99.90;;;;;;4991596;28;20062;-61
2021/04/11 04:48:25;;;;;;;9.20;6.93;;;10.70;99.90;;;;;;4973502;28;20354;-61
2021/04/11 04:51:06;;;;;;;8.60;5.40;;;10.70;99.90;;;;;;4973345;28;20023;-62
2021/04/11 04:53:44;;;;;;;8.88;6.25;;;10.80;99.90;;;;;;4991679;28;20434;-62
2021/04/11 04:56:15;;;;;;;8.35;5.45;;;10.80;99.90;;;;;;4973091;28;20030;-61
2021/04/11 04:58:45;;;;;;;7.10;5.50;;;10.80;99.90;;;;;;4991303;28;20026;-61
2021/04/11 05:01:19;;;;;;;7.35;5.40;;;10.80;99.90;;;;;;4990939;28;20039;-62
2021/04/11 05:03:47;;;;;;;7.18;5.57;;;10.70;99.90;;;;;;4973918;28;20058;-61
2021/04/11 05:06:37;;;;;;;7.82;4.80;;;10.80;99.90;;;;;;4991159;28;20030;-62
2021/04/11 05:09:28;;;;;;;11.02;5.75;;;10.90;99.90;;;;;;4990593;28;20141;-61
2021/04/11 05:12:02;;;;;;;8.13;5.20;;;10.80;99.90;;;;;;4973238;28;20037;-61
2021/04/11 05:14:57;;;;;;;7.93;5.00;;;11.00;99.90;;;;;;4991322;28;20392;-62
2021/04/11 05:17:36;;;;;;;7.53;5.13;;;11.00;99.90;;;;;;4991324;28;20460;-62
2021/04/11 05:20:28;;;;;;;10.65;5.57;;;11.00;99.90;;;;;;4973051;28;20076;-62
2021/04/11 05:23:15;;;;;;;5.18;4.32;;;11.00;99.90;;;;;;4977797;28;20096;-62
2021/04/11 05:25:54;;;;;;;6.07;4.20;;;10.90;99.90;;;;;;4973810;28;20058;-62
2021/04/11 05:28:32;;;;;;;8.50;4.43;;;11.00;99.90;;;;;;4973727;28;20101;-62
2021/04/11 05:31:06;;;;;;;4.88;3.80;;;11.00;99.90;;;;;;4990284;28;20460;-62
2021/04/11 05:33:35;;;;;;;5.82;3.45;;;11.00;99.90;;;;;;4990939;28;20032;-63
2021/04/11 05:36:11;;;;;;;5.78;3.90;;;11.10;99.90;;;;;;4990684;28;20192;-61
2021/04/11 05:39:06;;;;;;;6.40;3.47;;;11.10;99.90;;;;;;4973528;28;20026;-62
2021/04/11 05:41:40;;;;;;;5.03;3.95;;;11.20;99.90;;;;;;4991076;28;20037;-62
2021/04/11 05:44:25;;;;;;;10.63;3.40;;;11.20;99.90;;;;;;4968191;28;20362;-62
2021/04/11 05:46:59;;;;;;;7.75;3.20;;;11.20;99.90;;;;;;4968990;28;20484;-62
2021/04/11 05:49:48;;;;;;;7.82;3.67;;;11.30;99.90;;;;;;4969307;28;20109;-61
2021/04/11 05:52:28;;;;;;;7.25;3.67;;;11.40;99.90;;;;;;4968439;28;20034;-60
2021/04/11 05:54:57;;;;;;;6.68;3.50;;;11.40;99.90;;;;;;4968700;28;20066;-63
2021/04/11 05:57:28;;;;;;;6.22;2.88;;;11.40;99.90;;;;;;4968778;28;20066;-61
2021/04/11 06:00:25;;;;;;;7.55;3.58;;;11.50;99.90;;;;;;4968855;28;20042;-62
2021/04/11 06:02:57;;;;;;;5.43;2.75;;;11.60;99.90;;;;;;4945786;28;20057;-62
2021/04/11 06:05:37;;;;;;;4.70;2.55;;;11.70;99.90;;;;;;4968820;28;20070;-60
2021/04/11 06:08:09;;;;;;;5.53;2.67;;;11.50;99.90;;;;;;4970732;28;20396;-61
2021/04/11 06:10:42;;;;;;;4.00;3.00;;;11.60;99.90;;;;;;4972690;28;20038;-61
2021/04/11 06:13:40;;;;;;;5.80;2.80;;;11.60;99.90;;;;;;4972171;28;20035;-64
2021/04/11 06:16:11;;;;;;;4.53;2.75;;;11.60;99.90;;;;;;4991519;28;20070;-62
2021/04/11 06:18:45;;;;;;;2.88;2.17;;;11.60;99.90;;;;;;4994320;28;20108;-61
2021/04/11 06:21:43;;;;;;;5.32;2.65;;;11.70;99.90;;;;;;4976256;28;20388;-61
2021/04/11 06:24:22;;;;;;;4.97;2.30;;;11.70;99.90;;;;;;4933753;28;20050;-62
2021/04/11 06:27:07;;;;;;;7.57;2.65;;;11.80;99.90;;;;;;4976988;28;20034;-62
2021/04/11 06:29:44;;;;;;;3.45;2.28;;;11.90;99.90;;;;;;4976938;28;20026;-62
2021/04/11 06:32:12;;;;;;;9.60;2.42;;;11.90;99.90;;;;;;4993969;28;20026;-61
2021/04/11 06:34:43;;;;;;;3.58;2.08;;;11.90;99.90;;;;;;4976719;28;20054;-61
2021/04/11 06:37:14;;;;;;;7.45;2.38;;;12.00;99.90;;;;;;4994093;28;20030;-61
2021/04/11 06:39:43;;;;;;;2.57;1.63;;;11.90;99.90;;;;;;4976696;28;20356;-61
2021/04/11 06:42:26;;;;;;;3.90;2.38;;;11.90;99.90;;;;;;4993575;28;20037;-62
2021/04/11 06:45:13;;;;;;;5.53;2.13;;;11.90;99.90;;;;;;4976345;28;20046;-61
2021/04/11 06:47:57;;;;;;;2.88;2.03;;;11.90;99.90;;;;;;4976501;28;20045;-62
2021/04/11 06:50:45;;;;;;;6.60;2.05;;;11.80;99.90;;;;;;4976211;28;20022;-62
2021/04/11 06:53:31;;;;;;;2.88;2.58;;;11.90;99.90;;;;;;4993780;28;20446;-62
2021/04/11 06:56:28;;;;;;;5.20;1.85;;;11.90;99.90;;;;;;4976261;28;20033;-63
2021/04/11 06:59:11;;;;;;;6.32;2.28;;;11.90;99.90;;;;;;4994301;28;20080;-61
2021/04/11 07:01:49;;;;;;;6.03;2.90;;;12.00;99.90;;;;;;4976243;28;20337;-62
2021/04/11 07:04:45;;;;;;;2.33;2.05;;;12.00;99.90;;;;;;4975639;28;20108;-61
2021/04/11 07:07:35;;;;;;;6.60;2.38;;;12.10;99.90;;;;;;4993100;28;20128;-61
2021/04/11 07:10:22;;;;;;;4.97;2.80;;;12.10;99.90;;;;;;4975289;28;20044;-62
2021/04/11 07:13:15;;;;;;;4.28;2.58;;;12.10;99.90;;;;;;4976184;28;20499;-62
2021/04/11 07:16:02;;;;;;;4.38;2.20;;;12.20;99.90;;;;;;4993271;28;20391;-61
2021/04/11 07:18:56;;;;;;;4.30;2.67;;;12.40;99.90;;;;;;4993276;28;20022;-62
2021/04/11 07:21:54;;;;;;;3.75;2.33;;;12.50;99.90;;;;;;4992615;28;20061;-62
2021/04/11 07:24:46;;;;;;;3.67;2.60;;;12.60;99.90;;;;;;4992635;28;20428;-61
2021/04/11 07:27:35;;;;;;;7.78;2.67;;;12.80;99.90;;;;;;4992697;28;20030;-62
2021/04/11 07:30:20;;;;;;;4.63;2.50;;;12.80;99.90;;;;;;4938688;28;20045;-62
2021/04/11 07:33:37;;;;;;;4.22;2.40;;;12.80;99.90;;;;;;4993099;28;20120;-62
2021/04/11 07:36:49;;;;;;;7.18;2.42;;;12.90;99.90;;;;;;4948718;28;20050;-62
2021/04/11 07:39:31;;;;;;;5.93;2.35;;;13.10;99.90;;;;;;4897123;29;20028;-61
2021/04/11 07:42:24;;;;;;;2.88;2.10;;;13.30;99.90;;;;;;4985215;28;20042;-62
2021/04/11 07:45:11;;;;;;;4.65;2.22;;;13.40;99.90;;;;;;4992347;28;20054;-62
2021/04/11 07:47:52;;;;;;;6.25;2.80;;;13.40;99.90;;;;;;4992837;28;20061;-64
2021/04/11 07:50:37;;;;;;;4.72;2.55;;;13.40;99.90;;;;;;4991779;28;20041;-62
2021/04/11 07:53:20;;;;;;;5.15;2.33;;;13.30;99.90;;;;;;4992221;28;20117;-67
2021/04/11 07:56:01;;;;;;;3.60;2.50;;;14.40;99.90;;;;;;5008561;28;20068;-63
2021/04/11 07:58:57;;;;;;;5.47;2.90;;;13.90;99.90;;;;;;5008772;28;20128;-63
2021/04/11 08:02:01;;;;;;;6.53;2.67;;;13.80;99.90;;;;;;5012143;28;20158;-61
2021/04/11 08:04:39;;;;;;;6.95;2.45;;;13.60;99.90;;;;;;4965981;28;20045;-62
2021/04/11 08:07:34;;;;;;;3.13;2.25;;;13.70;99.90;;;;;;5011454;28;20034;-63
2021/04/11 08:10:37;;;;;;;3.67;2.35;;;13.90;99.90;;;;;;5012033;28;20348;-62
2021/04/11 08:13:11;;;;;;;6.57;2.50;;;14.10;99.90;;;;;;5011219;28;20088;-63
2021/04/11 08:16:08;;;;;;;4.18;2.15;;;14.40;99.90;;;;;;5010364;28;20026;-62
2021/04/11 08:18:59;;;;;;;4.40;2.33;;;14.90;99.90;;;;;;5010028;28;20053;-62
2021/04/11 08:22:04;;;;;;;2.78;1.95;;;15.50;99.80;;;;;;4984087;28;20145;-62
2021/04/11 08:24:46;;;;;;;7.40;2.60;;;16.00;98.40;;;;;;4999943;28;20052;-62
2021/04/11 08:27:30;;;;;;;4.35;1.67;;;16.20;98.10;;;;;;5009485;28;20071;-63
2021/04/11 08:30:29;;;;;;;4.10;2.30;;;16.20;99.90;;;;;;5009942;28;20033;-62
2021/04/11 08:33:49;;;;;;;4.47;2.25;;;16.30;99.90;;;;;;5011072;28;20124;-62
2021/04/11 08:36:43;;;;;;;5.80;2.55;;;16.30;99.90;;;;;;4934580;29;20035;-62
2021/04/11 08:39:42;;;;;;;3.38;1.60;;;16.10;99.90;;;;;;4950812;29;20118;-63
2021/04/11 08:42:17;;;;;;;4.70;1.90;;;15.80;99.90;;;;;;4992473;28;20033;-62
2021/04/11 08:44:48;;;;;;;6.13;1.40;;;15.50;99.90;;;;;;4982106;28;20107;-62
2021/04/11 08:47:33;;;;;;;10.50;2.88;;;15.30;99.90;;;;;;4986038;28;20605;-61
2021/04/11 08:50:20;;;;;;;5.82;2.20;;;15.40;99.90;;;;;;4993224;28;20121;-62
2021/04/11 08:53:03;;;;;;;2.95;1.80;;;15.40;99.90;;;;;;4988080;28;20048;-61
2021/04/11 08:55:46;;;;;;;3.13;1.58;;;15.90;99.90;;;;;;4992581;28;20038;-61
2021/04/11 08:58:27;;;;;;;4.05;1.42;;;16.50;99.90;;;;;;4996932;28;20057;-49
2021/04/11 09:01:24;;;;;;;3.00;1.73;;;17.50;98.70;;;;;;4984029;28;20118;-52
2021/04/11 09:03:58;;;;;;;5.32;1.75;;;18.00;98.40;;;;;;5000254;28;20038;-51
2021/04/11 09:06:48;;;;;;;2.70;1.60;;;18.10;95.30;;;;;;4979272;28;20038;-49
2021/04/11 09:09:51;;;;;;;5.07;1.60;;;18.40;93.20;;;;;;4984437;28;20025;-49
2021/04/11 09:12:41;;;;;;;2.88;1.65;;;18.00;93.90;;;;;;4997803;28;20056;-49
2021/04/11 09:15:19;;;;;;;3.33;2.00;;;17.70;93.30;;;;;;4991363;28;20126;-63
2021/04/11 09:18:03;;;;;;;3.55;1.92;;;18.30;93.80;;;;;;4991694;28;20065;-49
2021/04/11 09:20:43;;;;;;;3.85;1.70;;;19.00;93.30;;;;;;5005538;28;20045;-50
2021/04/11 09:23:32;;;;;;;5.38;1.80;;;19.60;92.40;;;;;;4971758;28;20128;-54
2021/04/11 09:26:21;;;;;;;4.75;1.73;;;19.40;90.80;;;;;;4983484;28;20459;-50
2021/04/11 09:28:51;;;;;;;4.93;1.75;;;18.90;91.00;;;;;;4990905;28;20124;-49
2021/04/11 09:31:35;;;;;;;6.88;2.20;;;18.50;92.00;;;;;;4981823;28;20034;-49
2021/04/11 09:34:07;;;;;;;4.22;1.38;;;18.60;93.60;;;;;;5013974;28;20038;-50
2021/04/11 09:37:06;;;;;;;2.03;1.70;;;18.60;92.60;;;;;;4991147;28;20502;-62
2021/04/11 09:39:59;;;;;;;2.30;1.42;;;18.10;92.10;;;;;;5013583;28;20121;-62
2021/04/11 09:42:31;;;;;;;4.00;2.30;;;18.00;92.50;;;;;;4987949;28;20037;-62
2021/04/11 09:45:06;;;;;;;3.50;2.03;;;17.10;93.70;;;;;;5011109;28;20061;-63
2021/04/11 09:48:09;;;;;;;3.97;2.08;;;17.30;93.80;;;;;;4989454;28;20068;-62
2021/04/11 09:51:06;;;;;;;3.97;1.65;;;17.30;93.50;;;;;;5006395;28;20109;-73
2021/04/11 09:54:03;;;;;;;3.15;1.52;;;17.20;93.60;;;;;;5011314;28;20028;-74
2021/04/11 09:56:57;;;;;;;2.75;1.30;;;17.30;93.90;;;;;;4986494;28;20113;-63
2021/04/11 10:00:00;;;;;;;1.77;1.30;;;17.10;93.90;;;;;;4998545;28;20489;-62
2021/04/11 10:02:47;;;;;;;3.08;1.40;;;17.00;94.20;;;;;;5000714;28;20057;-63
2021/04/11 10:05:38;;;;;;;3.63;1.50;;;16.80;94.40;;;;;;4989289;28;20022;-62
2021/04/11 10:08:25;;;;;;;3.55;1.50;;;16.70;94.60;;;;;;5005388;28;20183;-62
2021/04/11 10:11:05;;;;;;;4.15;1.60;;;16.60;95.00;;;;;;4991100;28;20045;-62
2021/04/11 10:14:05;;;;;;;3.35;1.73;;;16.60;95.10;;;;;;4996369;28;20125;-62
2021/04/11 10:16:54;;;;;;;2.58;1.63;;;16.60;95.10;;;;;;5010638;28;20479;-62
2021/04/11 10:19:38;;;;;;;2.40;1.50;;;16.60;95.30;;;;;;5006022;28;20102;-64
2021/04/11 10:22:27;;;;;;;5.18;1.55;;;16.60;95.50;;;;;;4985925;28;20113;-65
2021/04/11 10:25:26;;;;;;;2.75;1.45;;;16.30;95.70;;;;;;5005802;28;20046;-61
2021/04/11 10:27:55;;;;;;;5.75;1.60;;;16.30;95.90;;;;;;5003150;28;20022;-62
2021/04/11 10:30:23;;;;;;;5.32;1.63;;;16.20;96.10;;;;;;5020747;28;20032;-63
2021/04/11 10:33:28;;;;;;;4.68;2.40;;;16.10;96.10;;;;;;5012933;28;20030;-62
2021/04/11 10:36:09;;;;;;;6.38;2.00;;;16.10;96.30;;;;;;4948664;28;20038;-69
2021/04/11 10:38:45;;;;;;;4.35;1.65;;;16.40;98.80;;;;;;5012114;28;20053;-61
2021/04/11 10:41:40;;;;;;;4.18;1.35;;;16.70;96.00;;;;;;4991394;28;20147;-61
2021/04/11 10:44:19;;;;;;;3.45;1.63;;;16.50;95.80;;;;;;4988525;28;20046;-63
2021/04/11 10:47:21;;;;;;;3.65;1.80;;;16.10;96.50;;;;;;4980687;28;20482;-62
2021/04/11 10:50:05;;;;;;;3.05;1.65;;;16.20;96.60;;;;;;4990718;28;20117;-63
2021/04/11 10:52:58;;;;;;;3.20;1.55;;;16.10;97.00;;;;;;5009035;28;20026;-62
2021/04/11 10:55:29;;;;;;;4.65;1.70;;;16.10;96.90;;;;;;5012489;28;20030;-63
2021/04/11 10:58:19;;;;;;;5.90;1.98;;;16.10;97.00;;;;;;5012867;28;20037;-61
2021/04/11 11:00:48;;;;;;;6.32;1.85;;;16.00;97.20;;;;;;4994391;28;20041;-62
2021/04/11 11:03:35;;;;;;;8.40;1.85;;;15.90;97.50;;;;;;4995045;28;20030;-63
2021/04/11 11:06:22;;;;;;;3.28;1.65;;;15.90;97.80;;;;;;4994508;28;20530;-62
2021/04/11 11:08:56;;;;;;;6.43;1.83;;;16.00;97.90;;;;;;4994649;28;20035;-62
2021/04/11 11:12:00;;;;;;;5.50;2.58;;;16.10;97.40;;;;;;5012298;28;20030;-64
2021/04/11 11:14:34;;;;;;;9.27;2.70;;;16.30;97.30;;;;;;4994487;28;20077;-62
2021/04/11 11:17:48;;;;;;;5.65;1.55;;;16.30;97.20;;;;;;4995103;28;20576;-62
2021/04/11 11:20:23;;;;;;;3.28;1.70;;;16.50;96.90;;;;;;4999328;28;20034;-68
2021/04/11 11:23:08;;;;;;;5.72;1.77;;;16.80;97.60;;;;;;4994738;28;20053;-68
2021/04/11 11:25:58;;;;;;;3.78;1.45;;;17.50;97.60;;;;;;4994291;28;20033;-66
2021/04/11 11:28:51;;;;;;;6.75;2.50;;;17.30;96.60;;;;;;4994263;28;20057;-66
2021/04/11 11:31:30;;;;;;;5.28;1.60;;;17.30;97.10;;;;;;5012537;28;20113;-69
2021/04/11 11:34:26;;;;;;;4.63;1.88;;;17.00;96.60;;;;;;5012226;28;20129;-68
2021/04/11 11:37:19;;;;;;;4.88;1.55;;;16.90;97.20;;;;;;5012758;28;20204;-68
2021/04/11 11:39:59;;;;;;;12.82;2.92;;;16.70;97.70;;;;;;4994058;28;20116;-68
2021/04/11 11:43:02;;;;;;;4.43;2.03;;;17.10;98.00;;;;;;4994116;28;20026;-68
2021/04/11 11:45:35;;;;;;;7.97;2.10;;;16.90;98.30;;;;;;4971550;28;20070;-67
2021/04/11 11:48:19;;;;;;;4.72;1.98;;;16.80;98.20;;;;;;4973044;28;20031;-67
2021/04/11 11:51:07;;;;;;;5.03;1.60;;;16.70;98.30;;;;;;4972552;28;20038;-68
2021/04/11 11:53:58;;;;;;;3.58;2.28;;;16.80;98.60;;;;;;4970983;28;20033;-63
2021/04/11 11:56:28;;;;;;;7.82;2.45;;;16.50;98.20;;;;;;4971574;28;20031;-62
2021/04/11 11:58:57;;;;;;;4.45;2.00;;;15.80;99.30;;;;;;4973194;28;20138;-66
2021/04/11 12:01:45;;;;;;;3.75;2.00;;;15.40;99.90;;;;;;4972850;28;20449;-63
2021/04/11 12:04:35;;;;;;;3.67;2.30;;;15.10;99.90;;;;;;4970975;28;20480;-62
2021/04/11 12:07:14;;;;;;;5.65;1.98;;;14.90;99.90;;;;;;4972787;28;20103;-62
2021/04/11 12:09:45;;;;;;;6.18;1.88;;;14.80;99.90;;;;;;4972454;28;20031;-62
2021/04/11 12:12:29;;;;;;;3.65;2.67;;;14.70;99.90;;;;;;4972914;28;20103;-62
2021/04/11 12:15:05;;;;;;;4.47;1.90;;;14.60;99.90;;;;;;4972813;28;20038;-63
2021/04/11 12:18:01;;;;;;;5.53;2.33;;;14.50;99.90;;;;;;4970404;28;20437;-62
2021/04/11 12:20:43;;;;;;;6.15;2.20;;;14.50;99.90;;;;;;4970534;28;20031;-65
2021/04/11 12:23:14;;;;;;;3.60;1.75;;;14.30;99.90;;;;;;4971288;28;20086;-63
2021/04/11 12:25:41;;;;;;;4.15;2.05;;;14.20;99.90;;;;;;4970383;28;20035;-63
2021/04/11 12:28:25;;;;;;;2.80;1.77;;;14.10;99.90;;;;;;4972289;28;20035;-63
2021/04/11 12:30:53;;;;;;;2.72;1.95;;;14.10;99.90;;;;;;4971961;28;20031;-63
2021/04/11 12:33:38;;;;;;;4.05;1.85;;;14.10;99.90;;;;;;4972031;28;20031;-61
2021/04/11 12:36:28;;;;;;;3.13;1.95;;;13.80;99.90;;;;;;4972473;28;20078;-62
2021/04/11 12:39:14;;;;;;;5.28;3.45;;;13.80;99.90;;;;;;4941272;28;20065;-62
2021/04/11 12:42:05;;;;;;;2.72;1.92;;;13.80;99.90;;;;;;4971892;28;20325;-61
2021/04/11 12:44:37;;;;;;;2.13;1.87;;;13.60;99.90;;;;;;4984662;28;20443;-63
2021/04/11 12:47:14;;;;;;;2.67;1.90;;;13.60;99.90;;;;;;4991436;28;20077;-63
2021/04/11 12:49:43;;;;;;;4.20;2.58;;;13.60;99.90;;;;;;4989130;28;20033;-63
2021/04/11 12:52:29;;;;;;;4.20;1.40;;;13.60;99.90;;;;;;4989624;28;20030;-63
2021/04/11 12:55:20;;;;;;;3.97;1.38;;;13.40;99.90;;;;;;4991249;28;20129;-64
2021/04/11 12:58:10;;;;;;;2.22;2.03;;;13.20;99.90;;;;;;4988579;28;20042;-63
2021/04/11 13:00:42;;;;;;;1.55;1.02;;;13.20;99.90;;;;;;4988201;28;20695;-62
2021/04/11 13:03:12;;;;;;;3.13;1.42;;;13.30;99.90;;;;;;4990326;28;20076;-61
2021/04/11 13:05:46;;;;;;;2.20;1.27;;;13.10;99.90;;;;;;4988444;28;20041;-62
2021/04/11 13:08:26;;;;;;;2.72;1.30;;;13.20;99.90;;;;;;4991285;28;20026;-63
2021/04/11 13:10:55;;;;;;;4.53;1.33;;;13.10;99.90;;;;;;4990471;28;20026;-63
2021/04/11 13:13:29;;;;;;;7.75;1.88;;;13.10;99.90;;;;;;4989435;28;20042;-62
2021/04/11 13:16:01;;;;;;;1.02;0.80;;;13.20;99.90;;;;;;4971531;28;20438;-65
2021/04/11 13:18:52;;;;;;;;;;;13.30;99.90;;;;;;4973507;28;20031;-64
2021/04/11 13:22:08;;;;;;;2.08;1.00;;;13.30;99.90;;;;;;4958813;28;20011;-62
2021/04/11 13:25:02;;;;;;;1.98;0.45;;;13.10;99.90;;;;;;4929020;29;20401;-63
2021/04/11 13:27:47;;;;;;;0.50;0.50;;;13.20;99.90;;;;;;4929749;29;20080;-62
2021/04/11 13:30:24;;;;;;;0.63;0.32;;;13.20;99.90;;;;;;4977309;28;20125;-63
2021/04/11 13:33:13;;;;;;;0.60;0.30;;;13.10;99.90;;;;;;4987936;28;20041;-62
2021/04/11 13:35:59;;;;;;;1.50;0.40;;;12.90;99.90;;;;;;4988829;28;20545;-61
2021/04/11 13:38:36;;;;;;;0.70;0.35;;;12.80;99.90;;;;;;4990680;28;20030;-66
2021/04/11 13:41:17;;;;;;;1.30;0.88;;;12.80;99.90;;;;;;4990162;28;20041;-65
2021/04/11 13:43:46;;;;;;;1.55;0.60;;;12.80;99.90;;;;;;4971647;28;20141;-64
2021/04/11 13:46:35;;;;;;;1.55;0.43;;;12.80;99.90;;;;;;4990313;28;20113;-63